CheckWX is a tool to help pilots better visualize weather data.  It is not intended as a substitute for an official pre-flight weather briefing.

12:44:41 UTC

KORS METAR
Orcas Island Airport
Eastsound, Washington, USA
Current

10 mins ago

KORS 221235Z AUTO 18010KT 10SM SCT042 BKN048 OVC055 04/00 A2999 RMK AO2
Observed
Feb-22 @ 12:35 UTC
Wind
  • 180° at 10 KTS
Visibility
10 SM
Flight Rules
VFR
Cloud Levels
  • Scattered at 4,200' AGL
  • Broken at 4,800' AGL
  • Overcast at 5,500' AGL
Temperature
C / 39°F
Dewpoint
C / 32°F
Humidity
75%
Altimeter
29.99" Hg
Pressure
1015.62 hPa
Previous

30 mins ago

KORS 221215Z AUTO 19013KT 10SM SCT044 BKN050 OVC055 05/00 A3000 RMK AO2
Observed
Feb-22 @ 12:15 UTC
Wind
  • 190° at 13 KTS
Visibility
10 SM
Flight Rules
VFR
Cloud Levels
  • Scattered at 4,400' AGL
  • Broken at 5,000' AGL
  • Overcast at 5,500' AGL
Temperature
C / 41°F
Dewpoint
C / 32°F
Humidity
70%
Altimeter
30" Hg
Pressure
1015.92 hPa
Previous

50 mins ago

KORS 221155Z AUTO 19011KT 10SM BKN044 OVC050 05/00 A2999 RMK AO2
Observed
Feb-22 @ 11:55 UTC
Wind
  • 190° at 11 KTS
Visibility
10 SM
Flight Rules
VFR
Cloud Levels
  • Broken at 4,400' AGL
  • Overcast at 5,000' AGL
Temperature
C / 41°F
Dewpoint
C / 32°F
Humidity
70%
Altimeter
29.99" Hg
Pressure
1015.62 hPa